createdAt,value
2019-02-20T00:01:30.477Z,93.80
2019-02-20T00:03:58.298Z,94.50
2019-02-20T00:06:26.126Z,94.80
2019-02-20T00:08:53.927Z,94.20
2019-02-20T00:11:21.724Z,93.80
2019-02-20T00:13:49.543Z,93.40
2019-02-20T00:16:17.347Z,92.90
2019-02-20T00:18:45.183Z,92.50
2019-02-20T00:21:43.705Z,91.60
2019-02-20T00:24:11.514Z,91.60
2019-02-20T00:26:39.301Z,92.00
2019-02-20T00:30:12.873Z,92.30
2019-02-20T00:32:40.671Z,92.50
2019-02-20T00:35:08.514Z,93.80
2019-02-20T00:37:36.309Z,93.80
2019-02-20T00:40:28.679Z,93.40
2019-02-20T00:42:56.450Z,93.30
2019-02-20T00:45:42.728Z,93.70
2019-02-20T00:48:28.739Z,93.70
2019-02-20T00:51:08.789Z,93.80
2019-02-20T00:53:42.367Z,93.30
2019-02-20T00:56:10.188Z,92.90
2019-02-20T00:58:38.060Z,93.20
2019-02-20T01:01:05.820Z,92.60
2019-02-20T01:03:33.626Z,92.40
2019-02-20T01:06:04.912Z,92.80
2019-02-20T01:08:33.014Z,92.60
2019-02-20T01:11:00.806Z,93.40
2019-02-20T01:13:28.631Z,92.80
2019-02-20T01:15:57.511Z,93.00
2019-02-20T01:18:25.281Z,92.80
2019-02-20T01:20:53.106Z,92.00
2019-02-20T01:23:20.885Z,91.70
2019-02-20T01:25:48.719Z,91.90
2019-02-20T01:28:16.585Z,91.40
2019-02-20T01:30:44.747Z,91.30
2019-02-20T01:33:12.581Z,91.60
2019-02-20T01:35:40.377Z,91.30
2019-02-20T01:38:08.217Z,91.10
2019-02-20T01:40:51.118Z,91.80
2019-02-20T01:43:18.899Z,91.80
2019-02-20T01:45:46.730Z,90.80
2019-02-20T01:48:15.686Z,91.00
2019-02-20T01:50:43.548Z,90.30
2019-02-20T01:53:11.379Z,90.60
2019-02-20T01:55:39.151Z,91.20
2019-02-20T01:58:06.979Z,90.80
2019-02-20T02:00:34.802Z,90.90
2019-02-20T02:03:02.581Z,91.00
2019-02-20T02:05:30.413Z,90.40
2019-02-20T02:07:58.261Z,90.90
2019-02-20T02:10:41.273Z,91.10
2019-02-20T02:13:09.076Z,90.90
2019-02-20T02:15:36.938Z,90.40
2019-02-20T02:18:04.703Z,90.00
2019-02-20T02:20:32.492Z,90.50
2019-02-20T02:23:00.261Z,90.50
2019-02-20T02:25:28.061Z,90.90
2019-02-20T02:27:55.790Z,89.90
2019-02-20T02:30:23.641Z,90.20
2019-02-20T02:32:51.370Z,90.50
2019-02-20T02:35:19.157Z,90.10
2019-02-20T02:37:46.966Z,90.80
2019-02-20T02:40:14.772Z,90.80
2019-02-20T02:42:42.553Z,91.20
2019-02-20T02:45:10.355Z,91.00
2019-02-20T02:47:38.189Z,90.10
2019-02-20T02:50:06.602Z,88.90
2019-02-20T02:52:34.362Z,90.40
2019-02-20T02:55:02.126Z,90.00
2019-02-20T02:57:29.964Z,90.60
2019-02-20T03:00:03.390Z,90.60
2019-02-20T03:02:31.190Z,90.80
2019-02-20T03:04:58.993Z,90.80
2019-02-20T03:07:26.829Z,90.10
2019-02-20T03:09:54.635Z,90.00
2019-02-20T03:12:22.456Z,91.00
2019-02-20T03:14:50.211Z,91.50
2019-02-20T03:17:18.364Z,90.60
2019-02-20T03:19:51.188Z,90.00
2019-02-20T03:22:20.032Z,91.00
2019-02-20T03:24:47.833Z,91.00
2019-02-20T03:27:15.658Z,90.30
2019-02-20T03:29:43.459Z,90.40
2019-02-20T03:32:30.684Z,90.30
2019-02-20T03:34:58.437Z,90.90
2019-02-20T03:37:26.263Z,89.40
2019-02-20T03:39:54.042Z,89.40
2019-02-20T03:42:21.865Z,89.40
2019-02-20T03:44:49.683Z,89.10
2019-02-20T03:47:17.488Z,89.80
2019-02-20T03:49:45.343Z,90.10
2019-02-20T03:52:13.146Z,90.40
2019-02-20T03:54:40.992Z,90.30
2019-02-20T03:57:08.784Z,90.20
2019-02-20T03:59:36.671Z,89.80
2019-02-20T04:02:04.813Z,88.90
2019-02-20T04:04:32.642Z,90.40
2019-02-20T04:07:00.486Z,90.80
2019-02-20T04:09:33.552Z,90.80
2019-02-20T04:12:01.368Z,90.40
2019-02-20T04:14:29.203Z,90.30
2019-02-20T04:16:56.979Z,90.50
2019-02-20T04:19:24.836Z,90.20
2019-02-20T04:21:52.591Z,90.10
2019-02-20T04:24:20.367Z,90.50
2019-02-20T04:26:48.161Z,90.40
2019-02-20T04:29:16.230Z,90.20
2019-02-20T04:31:44.018Z,89.00
2019-02-20T04:34:11.824Z,90.40
2019-02-20T04:36:39.593Z,89.40
2019-02-20T04:39:12.537Z,90.00
2019-02-20T04:41:40.395Z,89.60
2019-02-20T04:44:08.276Z,90.00
2019-02-20T04:46:36.113Z,90.40
2019-02-20T04:49:03.948Z,90.30
2019-02-20T04:51:31.741Z,90.30
2019-02-20T04:53:59.557Z,90.50
2019-02-20T04:56:27.303Z,91.10
2019-02-20T04:58:58.762Z,90.90
2019-02-20T05:01:26.578Z,91.30
2019-02-20T05:03:54.386Z,90.80
2019-02-20T05:06:22.124Z,91.00
2019-02-20T05:08:49.929Z,90.50
2019-02-20T05:11:32.845Z,90.50
2019-02-20T05:14:20.075Z,90.30
2019-02-20T05:16:47.822Z,91.00
2019-02-20T05:19:15.805Z,90.60
2019-02-20T05:21:43.752Z,90.80
2019-02-20T05:24:11.547Z,90.70
2019-02-20T05:26:39.333Z,90.50
2019-02-20T05:29:07.110Z,89.60
2019-02-20T05:31:35.537Z,89.90
2019-02-20T05:34:03.324Z,90.60
2019-02-20T05:36:32.918Z,90.50
2019-02-20T05:39:00.943Z,90.30
2019-02-20T05:41:28.719Z,90.00
2019-02-20T05:43:56.547Z,90.30
2019-02-20T05:46:24.290Z,90.70
2019-02-20T05:48:52.125Z,90.60
2019-02-20T05:51:20.032Z,90.50
2019-02-20T05:53:47.850Z,88.90
2019-02-20T05:56:15.640Z,90.00
2019-02-20T05:58:43.448Z,90.50
2019-02-20T06:01:11.301Z,91.00
2019-02-20T06:03:39.084Z,90.50
2019-02-20T06:06:06.880Z,90.40
2019-02-20T06:08:34.758Z,90.20
2019-02-20T06:11:02.577Z,90.50
2019-02-20T06:13:30.394Z,90.90
2019-02-20T06:15:58.206Z,91.60
2019-02-20T06:18:26.016Z,91.10
2019-02-20T06:20:53.841Z,90.30
2019-02-20T06:23:23.703Z,91.00
2019-02-20T06:25:51.541Z,90.60
2019-02-20T06:28:19.358Z,90.80
2019-02-20T06:30:52.688Z,90.40
2019-02-20T06:33:20.506Z,89.90
2019-02-20T06:35:48.379Z,89.60
2019-02-20T06:38:16.213Z,90.00
2019-02-20T06:41:14.465Z,90.10
2019-02-20T06:43:42.226Z,88.90
2019-02-20T06:46:10.020Z,89.70
2019-02-20T06:48:37.788Z,89.00
2019-02-20T06:51:44.900Z,89.90
2019-02-20T06:54:12.713Z,88.80
2019-02-20T06:56:40.487Z,89.20
2019-02-20T06:59:08.296Z,88.90
2019-02-20T07:01:36.092Z,87.90
2019-02-20T07:04:03.866Z,88.60
2019-02-20T07:06:58.430Z,88.80
2019-02-20T07:10:33.364Z,89.30
2019-02-20T07:13:31.742Z,88.60
2019-02-20T07:16:58.131Z,88.70
2019-02-20T07:20:18.688Z,88.30
2019-02-20T07:23:35.510Z,86.30
2019-02-20T07:27:14.397Z,85.80
2019-02-20T07:30:09.841Z,84.70
2019-02-20T07:32:37.691Z,84.00
2019-02-20T07:35:08.446Z,84.20
2019-02-20T07:37:36.223Z,84.20
2019-02-20T07:40:05.703Z,84.20
2019-02-20T07:42:33.482Z,83.10
2019-02-20T07:45:01.304Z,84.70
2019-02-20T07:47:29.087Z,84.30
2019-02-20T07:49:56.913Z,84.40
2019-02-20T07:52:24.719Z,84.40
2019-02-20T07:54:52.537Z,84.90
2019-02-20T07:57:20.598Z,84.50
2019-02-20T07:59:48.378Z,82.20
2019-02-20T08:02:16.168Z,82.90
2019-02-20T08:04:45.805Z,83.70
2019-02-20T08:07:13.694Z,82.80
2019-02-20T08:09:41.442Z,81.80
2019-02-20T08:12:09.241Z,81.10
2019-02-20T08:14:37.054Z,81.00
2019-02-20T08:17:04.926Z,80.10
2019-02-20T08:19:32.746Z,79.40
2019-02-20T08:22:00.561Z,78.70
2019-02-20T08:24:28.362Z,79.60
2019-02-20T08:26:56.118Z,78.90
2019-02-20T08:29:24.027Z,78.10
2019-02-20T08:31:53.871Z,78.10
2019-02-20T08:34:21.580Z,76.90
2019-02-20T08:36:49.399Z,76.20
2019-02-20T08:39:22.285Z,75.50
2019-02-20T08:41:50.078Z,75.60
2019-02-20T08:44:17.874Z,74.10
2019-02-20T08:46:45.679Z,73.40
2019-02-20T08:49:13.579Z,74.20
2019-02-20T08:51:43.397Z,73.50
2019-02-20T08:54:11.213Z,72.40
2019-02-20T08:56:39.178Z,71.40
2019-02-20T08:59:07.064Z,72.50
2019-02-20T09:01:34.899Z,71.10
2019-02-20T09:04:02.715Z,71.10
2019-02-20T09:06:30.513Z,69.60
2019-02-20T09:08:58.328Z,69.30
2019-02-20T09:11:26.137Z,66.70
2019-02-20T09:13:54.022Z,67.00
2019-02-20T09:16:21.865Z,67.10
2019-02-20T09:18:49.621Z,65.40
2019-02-20T09:21:17.437Z,64.70
2019-02-20T09:23:46.061Z,65.50
2019-02-20T09:26:13.832Z,63.90
2019-02-20T09:28:41.653Z,62.30
2019-02-20T09:31:09.513Z,63.10
2019-02-20T09:33:37.323Z,62.70
2019-02-20T09:36:05.116Z,62.40
2019-02-20T09:38:32.910Z,62.00
2019-02-20T09:41:00.730Z,61.60
2019-02-20T09:43:28.583Z,60.20
2019-02-20T09:45:56.395Z,60.80
2019-02-20T09:48:26.297Z,61.60
2019-02-20T09:50:54.173Z,61.50
2019-02-20T09:53:21.954Z,60.20
2019-02-20T09:55:51.880Z,59.10
2019-02-20T09:58:19.421Z,60.50
2019-02-20T10:00:47.220Z,59.90
2019-02-20T10:03:15.034Z,59.80
2019-02-20T10:05:42.821Z,60.30
2019-02-20T10:08:10.583Z,60.70
2019-02-20T10:10:38.371Z,60.40
2019-02-20T10:13:06.146Z,58.50
2019-02-20T10:15:33.924Z,58.90
2019-02-20T10:18:01.750Z,59.50
2019-02-20T10:20:34.710Z,59.30
2019-02-20T10:23:02.537Z,60.30
2019-02-20T10:25:30.369Z,60.20
2019-02-20T10:27:58.185Z,59.30
2019-02-20T10:30:26.346Z,59.10
2019-02-20T10:32:54.129Z,59.00
2019-02-20T10:35:21.879Z,59.60
2019-02-20T10:37:49.686Z,59.20
2019-02-20T10:40:22.715Z,59.50
2019-02-20T10:42:50.524Z,57.20
2019-02-20T10:45:18.400Z,58.10
2019-02-20T10:47:46.187Z,58.30
2019-02-20T10:50:23.619Z,56.60
2019-02-20T10:52:51.430Z,56.90
2019-02-20T10:55:19.320Z,54.40
2019-02-20T10:57:47.112Z,53.50
2019-02-20T11:00:24.060Z,52.90
2019-02-20T11:02:49.678Z,52.70
2019-02-20T11:05:18.121Z,52.00
2019-02-20T11:07:45.936Z,50.20
2019-02-20T11:10:13.746Z,50.30
2019-02-20T11:12:41.550Z,50.50
2019-02-20T11:15:09.353Z,50.00
2019-02-20T11:17:37.549Z,50.40
2019-02-20T11:20:06.268Z,47.70
2019-02-20T11:22:34.096Z,47.40
2019-02-20T11:25:01.915Z,46.20
2019-02-20T11:27:29.675Z,46.10
2019-02-20T11:30:12.280Z,46.10
2019-02-20T11:32:40.078Z,44.80
2019-02-20T11:35:08.097Z,45.30
2019-02-20T11:37:35.874Z,45.60
2019-02-20T11:40:04.677Z,45.90
2019-02-20T11:42:32.433Z,46.50
2019-02-20T11:45:00.277Z,46.50
2019-02-20T11:47:28.037Z,45.80
2019-02-20T11:49:55.861Z,46.20
2019-02-20T11:52:23.707Z,46.40
2019-02-20T11:54:51.538Z,46.20
2019-02-20T11:57:19.308Z,46.40
2019-02-20T11:59:47.121Z,45.60
2019-02-20T12:02:15.003Z,45.60
2019-02-20T12:04:42.915Z,44.80
2019-02-20T12:07:10.746Z,44.10
2019-02-20T12:09:45.354Z,44.10
2019-02-20T12:12:13.233Z,44.10
2019-02-20T12:14:41.025Z,42.80
2019-02-20T12:17:08.939Z,43.50
2019-02-20T12:19:36.758Z,43.70
2019-02-20T12:22:04.548Z,43.90
2019-02-20T12:24:32.974Z,43.50
2019-02-20T12:27:00.822Z,43.70
2019-02-20T12:29:30.066Z,43.00
2019-02-20T12:31:58.206Z,42.10
2019-02-20T12:34:25.979Z,42.30
2019-02-20T12:36:53.752Z,39.50
2019-02-20T12:39:21.716Z,38.20
2019-02-20T12:41:49.500Z,38.30
2019-02-20T12:44:17.317Z,36.40
2019-02-20T12:46:45.115Z,34.00
2019-02-20T12:49:13.084Z,33.90
2019-02-20T12:51:40.899Z,30.70
2019-02-20T12:54:08.696Z,29.30
2019-02-20T12:56:43.711Z,29.30
2019-02-20T12:59:07.940Z,29.40
2019-02-20T13:01:36.052Z,28.90
2019-02-20T13:04:03.933Z,29.40
2019-02-20T13:06:31.682Z,29.20
2019-02-20T13:08:59.549Z,30.10
2019-02-20T13:11:27.441Z,30.70
2019-02-20T13:13:55.353Z,29.50
2019-02-20T13:16:23.098Z,29.80
2019-02-20T13:18:50.934Z,30.20
2019-02-20T13:21:18.716Z,29.20
2019-02-20T13:23:46.594Z,31.20
2019-02-20T13:26:14.473Z,32.20
2019-02-20T13:28:42.306Z,31.90
2019-02-20T13:31:10.143Z,31.60
2019-02-20T13:33:37.959Z,30.80
2019-02-20T13:36:05.760Z,30.50
2019-02-20T13:38:33.567Z,29.80
2019-02-20T13:41:01.445Z,30.40
2019-02-20T13:43:29.510Z,31.40
2019-02-20T13:45:57.357Z,31.80
2019-02-20T13:48:26.758Z,31.80
2019-02-20T13:50:54.580Z,30.30
2019-02-20T13:53:22.363Z,30.80
2019-02-20T13:55:50.179Z,30.00
2019-02-20T13:58:17.972Z,30.00
2019-02-20T14:00:46.273Z,30.10
2019-02-20T14:03:14.095Z,30.90
2019-02-20T14:05:41.966Z,30.90
2019-02-20T14:08:09.761Z,32.10
2019-02-20T14:10:44.071Z,32.30
2019-02-20T14:13:11.903Z,32.60
2019-02-20T14:15:39.739Z,30.60
2019-02-20T14:18:07.583Z,32.50
2019-02-20T14:20:35.449Z,32.10
2019-02-20T14:23:03.218Z,31.90
2019-02-20T14:25:31.061Z,31.50
2019-02-20T14:27:58.870Z,31.90
2019-02-20T14:30:26.791Z,31.10
2019-02-20T14:32:54.602Z,32.40
2019-02-20T14:35:22.602Z,32.00
2019-02-20T14:37:50.449Z,30.70
2019-02-20T14:40:18.417Z,31.30
2019-02-20T14:42:46.205Z,31.90
2019-02-20T14:45:15.011Z,31.70
2019-02-20T14:47:42.789Z,31.60
2019-02-20T14:50:10.765Z,33.00
2019-02-20T14:52:38.885Z,32.80
2019-02-20T14:55:07.462Z,33.00
2019-02-20T14:57:35.376Z,32.70
2019-02-20T15:00:03.745Z,33.30
2019-02-20T15:02:31.500Z,33.20
2019-02-20T15:04:59.328Z,33.70
2019-02-20T15:07:27.152Z,34.10
2019-02-20T15:09:55.484Z,33.90
2019-02-20T15:12:23.317Z,34.00
2019-02-20T15:14:51.133Z,35.60
2019-02-20T15:17:18.916Z,34.70
2019-02-20T15:19:46.791Z,35.40
2019-02-20T15:22:14.610Z,35.00
2019-02-20T15:24:42.431Z,34.30
2019-02-20T15:27:10.729Z,35.10
2019-02-20T15:29:38.550Z,35.50
2019-02-20T15:32:06.300Z,35.70
2019-02-20T15:34:34.102Z,35.90
2019-02-20T15:37:03.208Z,35.80
2019-02-20T15:39:34.894Z,36.50
2019-02-20T15:42:08.236Z,36.70
2019-02-20T15:44:36.041Z,37.20
2019-02-20T15:47:03.888Z,37.30
2019-02-20T15:49:31.722Z,38.10
2019-02-20T15:52:01.351Z,38.60
2019-02-20T15:54:29.358Z,39.60
2019-02-20T15:56:57.481Z,39.60
2019-02-20T15:59:25.747Z,39.60
2019-02-20T16:01:53.596Z,39.50
2019-02-20T16:04:21.820Z,39.40
2019-02-20T16:06:49.925Z,39.40
2019-02-20T16:09:21.361Z,40.30
2019-02-20T16:11:54.856Z,40.40
2019-02-20T16:14:31.712Z,41.20
2019-02-20T16:17:00.644Z,41.40
2019-02-20T16:19:31.648Z,41.40
2019-02-20T16:22:00.231Z,41.70
2019-02-20T16:24:29.244Z,42.30
2019-02-20T16:26:57.569Z,42.80
2019-02-20T16:29:25.876Z,42.80
2019-02-20T16:31:53.715Z,43.30
2019-02-20T16:34:21.479Z,44.30
2019-02-20T16:36:49.371Z,44.00
2019-02-20T16:39:17.288Z,44.90
2019-02-20T16:41:45.123Z,45.40
2019-02-20T16:44:12.911Z,45.30
2019-02-20T16:46:41.061Z,46.00
2019-02-20T16:49:08.918Z,46.30
2019-02-20T16:51:36.708Z,46.00
2019-02-20T16:54:05.029Z,46.00
2019-02-20T16:56:32.972Z,46.20
2019-02-20T16:59:00.850Z,46.50
2019-02-20T17:01:29.809Z,45.90
2019-02-20T17:03:58.100Z,46.50
2019-02-20T17:06:25.905Z,47.50
2019-02-20T17:08:53.714Z,47.70
2019-02-20T17:11:21.492Z,50.00
2019-02-20T17:13:49.284Z,49.20
2019-02-20T17:16:17.477Z,49.90
2019-02-20T17:18:45.351Z,49.90
2019-02-20T17:21:13.467Z,49.90
2019-02-20T17:23:41.307Z,49.80
2019-02-20T17:26:09.178Z,49.80
2019-02-20T17:28:37.155Z,50.10
2019-02-20T17:31:05.263Z,50.00
2019-02-20T17:33:33.079Z,49.90
2019-02-20T17:36:00.924Z,50.40
2019-02-20T17:38:28.860Z,50.60
2019-02-20T17:40:56.723Z,50.00
2019-02-20T17:43:24.564Z,50.50
2019-02-20T17:45:52.349Z,51.40
2019-02-20T17:48:20.182Z,51.60
2019-02-20T17:50:48.056Z,51.50
2019-02-20T17:53:15.872Z,53.10
2019-02-20T17:55:43.975Z,53.30
2019-02-20T17:58:15.265Z,54.40
2019-02-20T18:00:41.610Z,54.20
2019-02-20T18:03:09.697Z,54.10
2019-02-20T18:05:37.531Z,54.60
2019-02-20T18:08:05.301Z,55.70
2019-02-20T18:10:33.389Z,56.50
2019-02-20T18:13:01.236Z,55.40
2019-02-20T18:15:29.090Z,55.20
2019-02-20T18:17:56.877Z,56.10
2019-02-20T18:20:25.225Z,55.40
2019-02-20T18:22:53.193Z,55.50
2019-02-20T18:25:20.989Z,55.70
2019-02-20T18:27:48.795Z,55.90
2019-02-20T18:30:16.607Z,56.60
2019-02-20T18:32:44.470Z,56.80
2019-02-20T18:35:12.306Z,58.90
2019-02-20T18:37:40.095Z,57.80
2019-02-20T18:40:09.009Z,58.80
2019-02-20T18:42:36.956Z,58.90
2019-02-20T18:45:06.815Z,58.80
2019-02-20T18:47:34.659Z,58.10
2019-02-20T18:50:09.641Z,58.80
2019-02-20T18:52:37.433Z,58.80
2019-02-20T18:55:08.827Z,58.70
2019-02-20T18:57:36.659Z,59.10
2019-02-20T19:00:08.949Z,58.60
2019-02-20T19:02:36.829Z,58.70
2019-02-20T19:05:05.341Z,59.40
2019-02-20T19:07:33.121Z,59.40
2019-02-20T19:10:00.929Z,59.80
2019-02-20T19:13:07.568Z,59.70
2019-02-20T19:16:06.956Z,60.60
2019-02-20T19:19:23.683Z,60.80
2019-02-20T19:22:46.648Z,61.40
2019-02-20T19:26:26.064Z,61.90
2019-02-20T19:30:04.942Z,61.70
2019-02-20T19:33:06.663Z,61.80
2019-02-20T19:36:37.692Z,61.70
2019-02-20T19:39:39.969Z,62.80
2019-02-20T19:43:07.919Z,63.20
2019-02-20T19:46:33.177Z,63.80
2019-02-20T19:49:44.402Z,64.00
2019-02-20T19:52:59.311Z,64.50
2019-02-20T19:56:10.759Z,65.00
2019-02-20T19:59:47.503Z,64.70
2019-02-20T20:03:16.359Z,65.60
2019-02-20T20:06:47.207Z,66.60
2019-02-20T20:10:34.301Z,66.90
2019-02-20T20:13:52.149Z,66.80
2019-02-20T20:17:08.549Z,67.60
2019-02-20T20:20:36.727Z,67.50
2019-02-20T20:23:51.636Z,67.40
2019-02-20T20:26:53.167Z,67.60
2019-02-20T20:30:16.064Z,68.60
2019-02-20T20:33:03.503Z,69.10
2019-02-20T20:36:32.154Z,69.10
2019-02-20T20:40:16.243Z,69.90
2019-02-20T20:43:52.858Z,70.40
2019-02-20T20:46:42.106Z,70.50
2019-02-20T20:50:04.070Z,70.90
2019-02-20T20:53:16.279Z,71.00
2019-02-20T20:56:57.715Z,72.00
2019-02-20T21:00:26.452Z,71.50
2019-02-20T21:03:02.295Z,71.90
2019-02-20T21:06:30.615Z,71.90
2019-02-20T21:10:13.010Z,73.20
2019-02-20T21:13:53.502Z,72.80
2019-02-20T21:17:36.285Z,74.00
2019-02-20T21:21:05.299Z,73.60
2019-02-20T21:24:26.541Z,73.50
2019-02-20T21:27:37.558Z,75.20
2019-02-20T21:31:01.107Z,74.70
2019-02-20T21:34:09.934Z,75.50
2019-02-20T21:37:36.586Z,76.00
2019-02-20T21:40:47.694Z,76.50
2019-02-20T21:44:22.561Z,76.50
2019-02-20T21:47:26.261Z,77.10
2019-02-20T21:50:14.113Z,80.00
2019-02-20T21:54:02.471Z,77.90
2019-02-20T21:57:10.140Z,78.40
2019-02-20T22:00:34.925Z,79.50
2019-02-20T22:03:50.722Z,78.60
2019-02-20T22:07:05.529Z,80.60
2019-02-20T22:09:58.380Z,81.00
2019-02-20T22:13:21.793Z,80.60
2019-02-20T22:16:47.835Z,80.30
2019-02-20T22:20:31.064Z,79.90
2019-02-20T22:23:57.485Z,81.10
2019-02-20T22:26:59.375Z,79.90
2019-02-20T22:30:36.116Z,81.60
2019-02-20T22:33:32.905Z,80.00
2019-02-20T22:36:52.068Z,80.80
2019-02-20T22:40:05.306Z,80.80
2019-02-20T22:43:44.233Z,80.30
2019-02-20T22:46:50.832Z,80.80
2019-02-20T22:49:56.846Z,80.90
2019-02-20T22:52:40.049Z,80.80
2019-02-20T22:56:33.343Z,82.20
2019-02-20T23:00:02.666Z,80.70
2019-02-20T23:03:25.275Z,80.70
2019-02-20T23:06:52.491Z,80.70
2019-02-20T23:09:33.542Z,80.60
2019-02-20T23:12:54.963Z,80.60
2019-02-20T23:15:22.760Z,80.50
2019-02-20T23:17:50.557Z,81.20
2019-02-20T23:20:28.849Z,80.50
2019-02-20T23:22:57.159Z,80.90
2019-02-20T23:25:25.313Z,80.50
2019-02-20T23:27:53.180Z,80.60
2019-02-20T23:30:21.052Z,80.40
2019-02-20T23:32:48.846Z,81.20
2019-02-20T23:35:16.637Z,83.30
2019-02-20T23:37:44.409Z,84.60
2019-02-20T23:40:12.212Z,85.70
2019-02-20T23:42:40.019Z,84.50
2019-02-20T23:45:08.010Z,84.20
2019-02-20T23:47:35.793Z,83.60
2019-02-20T23:50:03.974Z,83.00
2019-02-20T23:52:31.754Z,83.10
2019-02-20T23:54:59.577Z,82.00
2019-02-20T23:57:27.398Z,82.20
2019-02-20T23:59:55.456Z,83.30
